createdAt,value
2017-06-25T00:00:30.536Z,54.75
2017-06-25T00:01:40.778Z,54.75
2017-06-25T00:02:51.014Z,54.84
2017-06-25T00:04:01.267Z,54.84
2017-06-25T00:05:11.192Z,54.27
2017-06-25T00:06:21.118Z,54.55
2017-06-25T00:07:30.732Z,54.55
2017-06-25T00:08:40.968Z,54.46
2017-06-25T00:09:51.213Z,54.27
2017-06-25T00:11:01.451Z,54.36
2017-06-25T00:12:11.696Z,54.07
2017-06-25T00:13:21.939Z,54.65
2017-06-25T00:14:31.554Z,54.43
2017-06-25T00:15:41.487Z,54.84
2017-06-25T00:16:51.101Z,54.55
2017-06-25T00:18:01.336Z,54.55
2017-06-25T00:19:11.262Z,54.24
2017-06-25T00:20:20.882Z,55.1
2017-06-25T00:21:30.807Z,54.91
2017-06-25T00:22:41.057Z,54.65
2017-06-25T00:23:51.295Z,55.01
2017-06-25T00:25:00.912Z,55.1
2017-06-25T00:26:10.528Z,54.65
2017-06-25T00:27:20.456Z,54.53
2017-06-25T00:28:30.384Z,54.36
2017-06-25T00:29:40.624Z,54.65
2017-06-25T00:30:50.865Z,55.13
2017-06-25T00:32:01.122Z,54.72
2017-06-25T00:33:11.366Z,54.62
2017-06-25T00:34:21.606Z,55.01
2017-06-25T00:35:31.215Z,54.91
2017-06-25T00:36:41.148Z,55.1
2017-06-25T00:37:51.081Z,55.01
2017-06-25T00:39:01.013Z,54.62
2017-06-25T00:40:11.277Z,54.62
2017-06-25T00:41:21.514Z,55.2
2017-06-25T00:42:31.130Z,55.01
2017-06-25T00:43:41.375Z,54.82
2017-06-25T00:44:51.618Z,55.3
2017-06-25T00:46:01.553Z,55.59
2017-06-25T00:47:11.503Z,55.78
2017-06-25T00:48:21.119Z,55.2
2017-06-25T00:49:31.048Z,55.1
2017-06-25T00:50:40.976Z,55.49
2017-06-25T00:51:50.928Z,54.72
2017-06-25T00:53:00.853Z,55.88
2017-06-25T00:54:11.093Z,55.49
2017-06-25T00:55:21.329Z,55.59
2017-06-25T00:56:30.948Z,55.56
2017-06-25T00:57:41.191Z,55.2
2017-06-25T00:58:50.814Z,55.1
2017-06-25T01:00:00.426Z,55.4
2017-06-25T01:01:10.039Z,55.01
2017-06-25T01:02:20.280Z,55.01
2017-06-25T01:03:30.221Z,55.01
2017-06-25T01:04:40.467Z,55.01
2017-06-25T01:05:50.705Z,55.49
2017-06-25T01:07:00.941Z,55.01
2017-06-25T01:08:10.886Z,55.1
2017-06-25T01:09:20.830Z,55.2
2017-06-25T01:10:30.761Z,55.78
2017-06-25T01:11:41.006Z,55.2
2017-06-25T01:12:51.246Z,55.1
2017-06-25T01:14:01.172Z,55.88
2017-06-25T01:15:11.107Z,55.78
2017-06-25T01:16:21.351Z,54.82
2017-06-25T01:17:31.588Z,55.01
2017-06-25T01:18:41.511Z,55.3
2017-06-25T01:19:51.126Z,55.68
2017-06-25T01:21:01.371Z,55.27
2017-06-25T01:22:11.299Z,55.46
2017-06-25T01:23:21.540Z,55.94
2017-06-25T01:24:31.784Z,55.66
2017-06-25T01:25:41.710Z,55.36
2017-06-25T01:26:51.642Z,55.85
2017-06-25T01:28:01.256Z,55.49
2017-06-25T01:29:11.505Z,55.59
2017-06-25T01:30:21.431Z,55.78
2017-06-25T01:31:31.676Z,55.88
2017-06-25T01:32:41.921Z,55.4
2017-06-25T01:33:52.152Z,55.49
2017-06-25T01:35:01.763Z,55.49
2017-06-25T01:36:11.694Z,55.88
2017-06-25T01:37:21.936Z,55.49
2017-06-25T01:38:31.551Z,55.49
2017-06-25T01:39:41.173Z,55.4
2017-06-25T01:40:51.416Z,55.4
2017-06-25T01:42:01.347Z,55.4
2017-06-25T01:43:10.962Z,55.59
2017-06-25T01:44:20.580Z,55.68
2017-06-25T01:45:30.832Z,55.27
2017-06-25T01:46:40.764Z,55.98
2017-06-25T01:47:50.694Z,55.59
2017-06-25T01:49:00.939Z,55.59
2017-06-25T01:50:10.867Z,55.68
2017-06-25T01:51:21.114Z,55.1
2017-06-25T01:52:30.738Z,55.01
2017-06-25T01:53:40.669Z,55.1
2017-06-25T01:54:50.594Z,55.2
2017-06-25T01:56:00.522Z,55.3
2017-06-25T01:57:10.770Z,55.49
2017-06-25T01:58:20.702Z,55.78
2017-06-25T01:59:30.628Z,55.3
2017-06-25T02:00:40.874Z,55.49
2017-06-25T02:01:50.806Z,55.68
2017-06-25T02:03:00.752Z,55.78
2017-06-25T02:04:10.678Z,55.78
2017-06-25T02:05:20.919Z,55.78
2017-06-25T02:06:30.529Z,55.4
2017-06-25T02:07:40.467Z,55.88
2017-06-25T02:08:50.393Z,55.4
2017-06-25T02:10:00.006Z,55.98
2017-06-25T02:11:10.249Z,56.24
2017-06-25T02:12:20.492Z,56.04
2017-06-25T02:13:30.760Z,55.76
2017-06-25T02:14:40.691Z,56.24
2017-06-25T02:15:50.622Z,56.14
2017-06-25T02:17:00.865Z,56.33
2017-06-25T02:18:10.476Z,55.94
2017-06-25T02:19:20.726Z,55.98
2017-06-25T02:20:30.660Z,55.88
2017-06-25T02:21:40.899Z,55.68
2017-06-25T02:22:51.143Z,55.68
2017-06-25T02:24:01.387Z,55.98
2017-06-25T02:25:11.637Z,55.88
2017-06-25T02:26:21.252Z,56.14
2017-06-25T02:27:31.487Z,55.85
2017-06-25T02:28:41.414Z,56.26
2017-06-25T02:29:51.656Z,56.52
2017-06-25T02:31:01.590Z,56.43
2017-06-25T02:32:11.512Z,55.85
2017-06-25T02:33:21.754Z,56.14
2017-06-25T02:34:32.007Z,56.04
2017-06-25T02:35:41.940Z,56.14
2017-06-25T02:36:51.871Z,56.04
2017-06-25T02:38:01.803Z,56.43
2017-06-25T02:39:12.046Z,56.46
2017-06-25T02:40:22.289Z,56.52
2017-06-25T02:41:32.212Z,56.62
2017-06-25T02:42:42.455Z,56.14
2017-06-25T02:43:52.385Z,56.52
2017-06-25T02:45:01.999Z,56.16
2017-06-25T02:46:12.248Z,56.24
2017-06-25T02:47:22.178Z,56.52
2017-06-25T02:48:32.108Z,56.62
2017-06-25T02:49:42.038Z,56.33
2017-06-25T02:50:51.965Z,56.52
2017-06-25T02:52:01.577Z,56.43
2017-06-25T02:53:11.519Z,56.91
2017-06-25T02:54:21.762Z,56.24
2017-06-25T02:55:31.698Z,56.14
2017-06-25T02:56:41.960Z,56.52
2017-06-25T02:57:52.218Z,56.24
2017-06-25T02:59:02.466Z,56.16
2017-06-25T03:00:12.700Z,56.36
2017-06-25T03:01:22.338Z,56.91
2017-06-25T03:02:32.264Z,56.81
2017-06-25T03:03:42.514Z,56.43
2017-06-25T03:04:52.436Z,56.62
2017-06-25T03:06:02.682Z,57.29
2017-06-25T03:07:12.610Z,56.72
2017-06-25T03:08:22.859Z,56.56
2017-06-25T03:09:32.785Z,56.36
2017-06-25T03:10:43.019Z,57.62
2017-06-25T03:11:52.943Z,57.78
2017-06-25T03:13:03.182Z,58.26
2017-06-25T03:14:13.424Z,58.17
2017-06-25T03:15:23.043Z,57.68
2017-06-25T03:16:33.279Z,57.39
2017-06-25T03:17:42.896Z,57.71
2017-06-25T03:18:53.136Z,57.59
2017-06-25T03:20:03.372Z,57.59
2017-06-25T03:21:13.650Z,58.45
2017-06-25T03:22:23.894Z,57.97
2017-06-25T03:23:34.131Z,57.87
2017-06-25T03:24:44.052Z,58.26
2017-06-25T03:25:54.297Z,59.61
2017-06-25T03:27:04.533Z,59.9
2017-06-25T03:28:14.772Z,59.32
2017-06-25T03:29:24.386Z,59.03
2017-06-25T03:30:33.998Z,58.55
2017-06-25T03:31:44.246Z,58.77
2017-06-25T03:32:54.179Z,58.1
2017-06-25T03:34:04.428Z,58.77
2017-06-25T03:35:14.359Z,59.52
2017-06-25T03:36:24.601Z,59.71
2017-06-25T03:37:34.541Z,60.28
2017-06-25T03:38:44.787Z,60
2017-06-25T03:39:55.029Z,59.9
2017-06-25T03:41:04.960Z,59.52
2017-06-25T03:42:15.204Z,59.8
2017-06-25T03:43:25.133Z,59.8
2017-06-25T03:44:35.380Z,59.9
2017-06-25T03:45:44.995Z,59.8
2017-06-25T03:46:54.937Z,60.28
2017-06-25T03:48:05.177Z,60
2017-06-25T03:49:15.424Z,59.42
2017-06-25T03:50:25.672Z,60.1
2017-06-25T03:51:35.624Z,59.9
2017-06-25T03:52:45.237Z,60.48
2017-06-25T03:53:55.168Z,60.19
2017-06-25T03:55:05.426Z,60
2017-06-25T03:56:15.682Z,60
2017-06-25T03:57:25.609Z,60.38
2017-06-25T03:58:35.852Z,60.68
2017-06-25T03:59:46.094Z,60.58
2017-06-25T04:00:56.032Z,60.58
2017-06-25T04:02:05.961Z,60.68
2017-06-25T04:03:16.206Z,60.58
2017-06-25T04:04:26.139Z,61.44
2017-06-25T04:05:36.067Z,62.31
2017-06-25T04:06:46.311Z,61.93
2017-06-25T04:07:55.931Z,62.22
2017-06-25T04:09:05.543Z,62.31
2017-06-25T04:10:15.164Z,62.41
2017-06-25T04:11:25.089Z,61.06
2017-06-25T04:12:35.017Z,60.77
2017-06-25T04:13:45.265Z,60.1
2017-06-25T04:14:54.875Z,60.22
2017-06-25T04:16:04.494Z,59.64
2017-06-25T04:17:14.423Z,58.68
2017-06-25T04:18:24.348Z,58.97
2017-06-25T04:19:34.277Z,58.97
2017-06-25T04:20:44.524Z,58.29
2017-06-25T04:21:54.767Z,58.58
2017-06-25T04:23:04.695Z,58.39
2017-06-25T04:24:14.941Z,58.42
2017-06-25T04:25:24.865Z,58.51
2017-06-25T04:26:34.479Z,58.61
2017-06-25T04:27:44.410Z,57.93
2017-06-25T04:28:54.341Z,58.03
2017-06-25T04:30:04.578Z,58.12
2017-06-25T04:31:14.823Z,58.12
2017-06-25T04:32:24.756Z,58.12
2017-06-25T04:33:34.683Z,58.03
2017-06-25T04:34:44.295Z,58.22
2017-06-25T04:35:54.227Z,57.74
2017-06-25T04:37:04.467Z,57.93
2017-06-25T04:38:14.079Z,58.32
2017-06-25T04:39:24.016Z,58.22
2017-06-25T04:40:33.631Z,58.03
2017-06-25T04:41:43.557Z,58.42
2017-06-25T04:42:53.800Z,57.84
2017-06-25T04:44:03.107Z,58.22
2017-06-25T04:45:12.732Z,58.7
2017-06-25T04:46:22.665Z,57.93
2017-06-25T04:47:32.587Z,57.64
2017-06-25T04:48:42.540Z,58.61
2017-06-25T04:49:52.475Z,58.22
2017-06-25T04:51:02.719Z,58.22
2017-06-25T04:52:12.341Z,58.22
2017-06-25T04:53:22.578Z,58.03
2017-06-25T04:54:32.828Z,58.12
2017-06-25T04:55:43.076Z,57.64
2017-06-25T04:56:53.314Z,57.84
2017-06-25T04:58:03.241Z,57.64
2017-06-25T04:59:13.486Z,57.84
2017-06-25T05:00:23.727Z,57.93
2017-06-25T05:01:33.661Z,57.74
2017-06-25T05:02:43.589Z,57.54
2017-06-25T05:03:53.519Z,58.03
2017-06-25T05:05:03.446Z,58.61
2017-06-25T05:06:13.694Z,57.64
2017-06-25T05:07:23.932Z,57.64
2017-06-25T05:08:33.867Z,58.12
2017-06-25T05:09:43.793Z,57.93
2017-06-25T05:10:54.035Z,57.84
2017-06-25T05:12:03.972Z,57.64
2017-06-25T05:13:13.283Z,57.84
2017-06-25T05:14:23.213Z,57.84
2017-06-25T05:15:33.454Z,57.45
2017-06-25T05:16:43.071Z,57.54
2017-06-25T05:17:53.323Z,57.64
2017-06-25T05:19:03.572Z,57.64
2017-06-25T05:20:13.185Z,57.64
2017-06-25T05:21:23.429Z,57.64
2017-06-25T05:22:33.049Z,57.54
2017-06-25T05:23:42.977Z,57.16
2017-06-25T05:24:52.598Z,57.26
2017-06-25T05:26:02.533Z,57.74
2017-06-25T05:27:12.771Z,57.45
2017-06-25T05:28:22.392Z,57.54
2017-06-25T05:29:32.006Z,58.03
2017-06-25T05:30:42.249Z,57.64
2017-06-25T05:31:52.177Z,57.16
2017-06-25T05:33:02.127Z,57.45
2017-06-25T05:34:12.053Z,57.57
2017-06-25T05:35:22.297Z,57.74
2017-06-25T05:36:31.908Z,57.64
2017-06-25T05:37:41.520Z,57.35
2017-06-25T05:38:51.767Z,57.45
2017-06-25T05:40:02.013Z,57.74
2017-06-25T05:41:12.266Z,57.45
2017-06-25T05:42:21.879Z,57.84
2017-06-25T05:43:31.808Z,57.38
2017-06-25T05:44:42.054Z,57.54
2017-06-25T05:45:51.672Z,57.74
2017-06-25T05:47:01.910Z,57.09
2017-06-25T05:48:12.168Z,57.16
2017-06-25T05:49:21.786Z,57.48
2017-06-25T05:50:32.028Z,56.99
2017-06-25T05:51:41.963Z,57.29
2017-06-25T05:52:51.902Z,57.35
2017-06-25T05:54:02.140Z,57.48
2017-06-25T05:55:12.390Z,57.29
2017-06-25T05:56:22.638Z,57.19
2017-06-25T05:57:32.252Z,57.84
2017-06-25T05:58:41.865Z,57.57
2017-06-25T05:59:51.801Z,57.87
2017-06-25T06:01:02.044Z,57.74
2017-06-25T06:02:11.978Z,57.77
2017-06-25T06:03:21.593Z,58.12
2017-06-25T06:04:31.518Z,57.77
2017-06-25T06:05:41.760Z,57.93
2017-06-25T06:06:52.004Z,57.19
2017-06-25T06:08:02.247Z,57.29
2017-06-25T06:09:12.500Z,57.64
2017-06-25T06:10:22.424Z,56.96
2017-06-25T06:11:32.670Z,57.96
2017-06-25T06:12:42.909Z,56.9
2017-06-25T06:13:52.833Z,58.06
2017-06-25T06:15:02.761Z,56.96
2017-06-25T06:16:12.695Z,57.06
2017-06-25T06:17:22.928Z,57.57
2017-06-25T06:18:32.538Z,56.58
2017-06-25T06:19:42.479Z,56.61
2017-06-25T06:20:52.414Z,56.61
2017-06-25T06:22:02.032Z,56.51
2017-06-25T06:23:11.651Z,56.32
2017-06-25T06:24:21.899Z,56.61
2017-06-25T06:25:31.512Z,56.8
2017-06-25T06:26:41.438Z,56.9
2017-06-25T06:27:51.082Z,55.93
2017-06-25T06:29:00.696Z,56.13
2017-06-25T06:30:10.625Z,56.22
2017-06-25T06:31:20.567Z,56.03
2017-06-25T06:32:30.815Z,57.38
2017-06-25T06:33:41.054Z,56.99
2017-06-25T06:34:50.976Z,56.99
2017-06-25T06:36:01.229Z,57.29
2017-06-25T06:37:11.172Z,56.61
2017-06-25T06:38:21.109Z,57.38
2017-06-25T06:39:31.349Z,57.38
2017-06-25T06:40:40.960Z,57.48
2017-06-25T06:41:50.889Z,57.19
2017-06-25T06:43:00.818Z,57.77
2017-06-25T06:44:11.060Z,57.96
2017-06-25T06:45:20.361Z,57.67
2017-06-25T06:46:30.603Z,57.57
2017-06-25T06:47:40.853Z,57.29
2017-06-25T06:48:50.787Z,57.77
2017-06-25T06:50:01.027Z,57.57
2017-06-25T06:51:11.018Z,57.77
2017-06-25T06:52:21.255Z,57.67
2017-06-25T06:53:31.179Z,57.77
2017-06-25T06:54:41.112Z,57.74
2017-06-25T06:55:51.040Z,58.35
2017-06-25T06:57:01.277Z,57.57
2017-06-25T06:58:11.214Z,57.57
2017-06-25T06:59:21.144Z,57.35
2017-06-25T07:00:31.075Z,57.57
2017-06-25T07:01:41.004Z,57.67
2017-06-25T07:02:51.242Z,58.15
2017-06-25T07:04:00.863Z,57.48
2017-06-25T07:05:10.797Z,57.87
2017-06-25T07:06:20.754Z,57.57
2017-06-25T07:07:30.690Z,57.67
2017-06-25T07:08:39.987Z,57.38
2017-06-25T07:09:49.602Z,56.32
2017-06-25T07:10:59.223Z,57.67
2017-06-25T07:12:09.487Z,57.19
2017-06-25T07:13:19.416Z,56.41
2017-06-25T07:14:29.663Z,56.71
2017-06-25T07:15:39.922Z,57.67
2017-06-25T07:16:49.540Z,57.29
2017-06-25T07:17:59.776Z,57.57
2017-06-25T07:19:09.707Z,57.09
2017-06-25T07:20:19.951Z,57.09
2017-06-25T07:21:29.875Z,56.9
2017-06-25T07:22:39.814Z,56.71
2017-06-25T07:23:49.757Z,56.71
2017-06-25T07:24:59.679Z,56.32
2017-06-25T07:26:09.602Z,56.13
2017-06-25T07:27:19.526Z,56.8
2017-06-25T07:28:29.455Z,56.9
2017-06-25T07:29:38.765Z,57.48
2017-06-25T07:30:48.070Z,57.48
2017-06-25T07:31:58.004Z,58.06
2017-06-25T07:33:07.932Z,57.38
2017-06-25T07:34:18.171Z,57.29
2017-06-25T07:35:28.415Z,56.61
2017-06-25T07:36:38.654Z,57.67
2017-06-25T07:37:48.897Z,58.25
2017-06-25T07:38:59.134Z,57.77
2017-06-25T07:40:09.383Z,56.9
2017-06-25T07:41:19.313Z,57.19
2017-06-25T07:42:29.558Z,57.77
2017-06-25T07:43:39.801Z,57.67
2017-06-25T07:44:49.732Z,57.09
2017-06-25T07:45:59.662Z,57.29
2017-06-25T07:47:09.278Z,57.77
2017-06-25T07:48:19.529Z,57.67
2017-06-25T07:49:29.795Z,57.48
2017-06-25T07:50:39.412Z,57.09
2017-06-25T07:51:49.662Z,57.19
2017-06-25T07:52:59.911Z,57.19
2017-06-25T07:54:09.845Z,57.48
2017-06-25T07:55:19.462Z,57.38
2017-06-25T07:56:29.701Z,57.19
2017-06-25T07:57:39.626Z,57.09
2017-06-25T07:58:49.559Z,57.48
2017-06-25T07:59:59.489Z,57.19
2017-06-25T08:01:09.107Z,57.29
2017-06-25T08:02:18.735Z,56.8
2017-06-25T08:03:28.979Z,56.41
2017-06-25T08:04:38.281Z,57.29
2017-06-25T08:05:48.213Z,56.9
2017-06-25T08:06:57.829Z,56.9
2017-06-25T08:08:07.761Z,57.29
2017-06-25T08:09:17.693Z,57.19
2017-06-25T08:10:27.311Z,56.8
2017-06-25T08:11:37.239Z,57.19
2017-06-25T08:12:47.174Z,57.29
2017-06-25T08:13:56.785Z,57.19
2017-06-25T08:15:07.029Z,57.09
2017-06-25T08:16:16.338Z,57.09
2017-06-25T08:17:26.266Z,57.38
2017-06-25T08:18:36.509Z,57.38
2017-06-25T08:19:46.435Z,57.29
2017-06-25T08:20:56.366Z,57.19
2017-06-25T08:22:06.293Z,57.19
2017-06-25T08:23:16.230Z,57.38
2017-06-25T08:24:26.479Z,57.31
2017-06-25T08:25:36.095Z,57.48
2017-06-25T08:26:46.031Z,57.38
2017-06-25T08:27:55.650Z,56.99
2017-06-25T08:29:05.580Z,57.19
2017-06-25T08:30:15.509Z,57.29
2017-06-25T08:31:25.441Z,56.99
2017-06-25T08:32:35.379Z,56.8
2017-06-25T08:33:45.631Z,57.38
2017-06-25T08:34:55.878Z,56.9
2017-06-25T08:36:06.116Z,57.38
2017-06-25T08:37:16.043Z,56.8
2017-06-25T08:38:25.658Z,57.29
2017-06-25T08:39:35.580Z,56.71
2017-06-25T08:40:45.825Z,56.73
2017-06-25T08:41:55.758Z,56.73
2017-06-25T08:43:05.998Z,57.03
2017-06-25T08:44:15.929Z,56.63
2017-06-25T08:45:25.858Z,56.93
2017-06-25T08:46:36.100Z,56.93
2017-06-25T08:47:46.037Z,56.73
2017-06-25T08:48:55.959Z,56.93
2017-06-25T08:50:06.211Z,56.63
2017-06-25T08:51:16.145Z,56.51
2017-06-25T08:52:25.764Z,56.93
2017-06-25T08:53:35.691Z,56.93
2017-06-25T08:54:45.931Z,56.35
2017-06-25T08:55:55.890Z,56.63
2017-06-25T08:57:05.822Z,56.93
2017-06-25T08:58:15.750Z,57.31
2017-06-25T08:59:25.676Z,56.63
2017-06-25T09:00:34.988Z,57.12
2017-06-25T09:01:45.227Z,56.93
2017-06-25T09:02:54.846Z,56.63
2017-06-25T09:04:04.466Z,57.03
2017-06-25T09:05:14.710Z,56.93
2017-06-25T09:06:24.635Z,57.03
2017-06-25T09:07:34.877Z,56.54
2017-06-25T09:08:44.803Z,57.12
2017-06-25T09:09:54.733Z,56.35
2017-06-25T09:11:04.971Z,57.03
2017-06-25T09:12:14.901Z,56.83
2017-06-25T09:13:24.831Z,56.93
2017-06-25T09:14:35.070Z,56.73
2017-06-25T09:15:45.002Z,57.31
2017-06-25T09:16:54.930Z,56.73
2017-06-25T09:18:04.861Z,57.12
2017-06-25T09:19:14.790Z,56.93
2017-06-25T09:20:24.718Z,56.63
2017-06-25T09:21:34.645Z,56.93
2017-06-25T09:22:44.270Z,56.45
2017-06-25T09:23:54.208Z,57.03
2017-06-25T09:25:04.145Z,56.54
2017-06-25T09:26:14.074Z,57.12
2017-06-25T09:27:24.006Z,57.12
2017-06-25T09:28:34.001Z,56.73
2017-06-25T09:29:43.934Z,56.54
2017-06-25T09:30:53.858Z,56.93
2017-06-25T09:32:03.164Z,56.63
2017-06-25T09:33:13.096Z,56.73
2017-06-25T09:34:23.342Z,56.83
2017-06-25T09:35:33.274Z,56.73
2017-06-25T09:36:43.213Z,57.41
2017-06-25T09:37:52.832Z,57.12
2017-06-25T09:39:03.076Z,57.12
2017-06-25T09:40:13.013Z,56.83
2017-06-25T09:41:23.257Z,56.54
2017-06-25T09:42:33.188Z,56.54
2017-06-25T09:43:43.113Z,57.31
2017-06-25T09:44:53.354Z,56.45
2017-06-25T09:46:03.599Z,56.63
2017-06-25T09:47:13.530Z,57.21
2017-06-25T09:48:23.156Z,57.12
2017-06-25T09:49:33.102Z,57.21
2017-06-25T09:50:42.729Z,56.54
2017-06-25T09:51:52.655Z,57.03
2017-06-25T09:53:02.277Z,56.71
2017-06-25T09:54:12.211Z,56.71
2017-06-25T09:55:22.144Z,56.63
2017-06-25T09:56:32.071Z,56.73
2017-06-25T09:57:41.996Z,57.51
2017-06-25T09:58:52.245Z,57.03
2017-06-25T10:00:02.177Z,56.63
2017-06-25T10:01:11.795Z,56.73
2017-06-25T10:02:22.044Z,57.03
2017-06-25T10:03:31.971Z,56.63
2017-06-25T10:04:41.899Z,56.93
2017-06-25T10:05:51.539Z,56.93
2017-06-25T10:07:01.793Z,57.31
2017-06-25T10:08:12.038Z,57.41
2017-06-25T10:09:21.962Z,57.31
2017-06-25T10:10:31.897Z,56.83
2017-06-25T10:11:41.835Z,57.31
2017-06-25T10:12:51.767Z,57.12
2017-06-25T10:14:01.697Z,57.31
2017-06-25T10:15:11.632Z,57.03
2017-06-25T10:16:21.558Z,57.21
2017-06-25T10:17:31.799Z,57.31
2017-06-25T10:18:42.039Z,57.21
2017-06-25T10:19:52.279Z,57.21
2017-06-25T10:21:02.210Z,57.21
2017-06-25T10:22:12.456Z,57.21
2017-06-25T10:23:21.772Z,56.83
2017-06-25T10:24:31.708Z,57.41
2017-06-25T10:25:41.951Z,57.21
2017-06-25T10:26:51.881Z,57.31
2017-06-25T10:28:02.122Z,57.31
2017-06-25T10:29:12.052Z,57.41
2017-06-25T10:30:21.982Z,57.41
2017-06-25T10:31:32.223Z,57.21
2017-06-25T10:32:41.837Z,57.41
2017-06-25T10:33:51.766Z,57.21
2017-06-25T10:35:02.006Z,57.41
2017-06-25T10:36:12.253Z,57.21
2017-06-25T10:37:22.498Z,57.21
2017-06-25T10:38:32.108Z,57.41
2017-06-25T10:39:42.034Z,56.93
2017-06-25T10:40:51.959Z,57.6
2017-06-25T10:42:02.199Z,57.41
2017-06-25T10:43:12.446Z,57.31
2017-06-25T10:44:22.376Z,57.21
2017-06-25T10:45:31.994Z,57.31
2017-06-25T10:46:41.614Z,57.21
2017-06-25T10:47:51.232Z,57.21
2017-06-25T10:49:01.480Z,57.21
2017-06-25T10:50:11.409Z,57.21
2017-06-25T10:51:21.031Z,57.31
2017-06-25T10:52:30.963Z,57.41
2017-06-25T10:53:40.893Z,57.12
2017-06-25T10:54:50.508Z,57.03
2017-06-25T10:56:00.750Z,57.31
2017-06-25T10:57:10.369Z,57.31
2017-06-25T10:58:20.333Z,57.31
2017-06-25T10:59:30.268Z,57.31
2017-06-25T11:00:39.880Z,57.12
2017-06-25T11:01:50.114Z,57.31
2017-06-25T11:02:59.426Z,57.31
2017-06-25T11:04:09.667Z,57.41
2017-06-25T11:05:19.597Z,57.31
2017-06-25T11:06:29.842Z,57.31
2017-06-25T11:07:40.083Z,57.41
2017-06-25T11:08:50.323Z,57.21
2017-06-25T11:09:59.941Z,57.31
2017-06-25T11:11:09.869Z,57.21
2017-06-25T11:12:19.488Z,57.21
2017-06-25T11:13:29.421Z,57.41
2017-06-25T11:14:39.043Z,57.41
2017-06-25T11:15:48.973Z,57.12
2017-06-25T11:16:58.912Z,57.31
2017-06-25T11:18:09.165Z,57.21
2017-06-25T11:19:18.776Z,56.83
2017-06-25T11:20:29.020Z,57.99
2017-06-25T11:21:38.636Z,57.99
2017-06-25T11:22:48.890Z,57.03
2017-06-25T11:23:58.828Z,57.31
2017-06-25T11:25:08.450Z,58.95
2017-06-25T11:26:17.439Z,57.7
2017-06-25T11:27:27.682Z,57.31
2017-06-25T11:28:37.929Z,57.7
2017-06-25T11:29:47.551Z,57.51
2017-06-25T11:30:57.792Z,57.31
2017-06-25T11:32:08.031Z,57.21
2017-06-25T11:33:17.662Z,56.93
2017-06-25T11:34:27.910Z,58.09
2017-06-25T11:35:37.846Z,57.7
2017-06-25T11:36:47.779Z,57.51
2017-06-25T11:37:57.710Z,57.79
2017-06-25T11:39:07.638Z,57.6
2017-06-25T11:40:17.880Z,57.73
2017-06-25T11:41:27.500Z,57.54
2017-06-25T11:42:37.742Z,57.51
2017-06-25T11:43:47.679Z,57.92
2017-06-25T11:44:57.949Z,57.89
2017-06-25T11:46:07.872Z,57.44
2017-06-25T11:47:17.491Z,57.21
2017-06-25T11:48:27.112Z,57.31
2017-06-25T11:49:37.360Z,57.89
2017-06-25T11:50:46.983Z,57.03
2017-06-25T11:51:56.599Z,57.31
2017-06-25T11:53:06.215Z,57.21
2017-06-25T11:54:16.152Z,58.37
2017-06-25T11:55:26.084Z,58.98
2017-06-25T11:56:36.330Z,57.79
2017-06-25T11:57:46.569Z,57.82
2017-06-25T11:58:56.495Z,57.82
2017-06-25T12:00:06.112Z,57.99
2017-06-25T12:01:16.357Z,57.7
2017-06-25T12:02:26.324Z,57.7
2017-06-25T12:03:35.940Z,57.79
2017-06-25T12:04:46.178Z,57.7
2017-06-25T12:05:55.483Z,57.7
2017-06-25T12:07:05.442Z,57.79
2017-06-25T12:08:15.064Z,57.82
2017-06-25T12:09:24.682Z,57.7
2017-06-25T12:10:34.920Z,58.86
2017-06-25T12:11:44.538Z,58.8
2017-06-25T12:12:54.155Z,58.21
2017-06-25T12:14:04.092Z,57.79
2017-06-25T12:15:14.028Z,58.21
2017-06-25T12:16:24.275Z,57.73
2017-06-25T12:17:34.522Z,59.66
2017-06-25T12:18:44.135Z,59.95
2017-06-25T12:19:54.063Z,58.98
2017-06-25T12:21:03.679Z,59.08
2017-06-25T12:22:13.348Z,58.98
2017-06-25T12:23:23.319Z,57.92
2017-06-25T12:24:33.304Z,58.18
2017-06-25T12:25:43.594Z,57.82
2017-06-25T12:26:53.888Z,57.73
2017-06-25T12:28:04.170Z,57.82
2017-06-25T12:29:14.130Z,58.89
2017-06-25T12:30:24.083Z,59.15
